createdAt,value
2023-03-20T00:02:27.227Z,16.30
2023-03-20T00:04:55.623Z,16.50
2023-03-20T00:07:23.959Z,16.70
2023-03-20T00:09:52.263Z,15.70
2023-03-20T00:12:26.212Z,14.90
2023-03-20T00:14:54.591Z,15.60
2023-03-20T00:22:22.578Z,16.10
2023-03-20T00:24:50.908Z,15.40
2023-03-20T00:27:19.623Z,14.00
2023-03-20T00:29:48.087Z,13.60
2023-03-20T00:32:16.847Z,13.80
2023-03-20T00:34:45.193Z,14.30
2023-03-20T00:37:14.999Z,14.20
2023-03-20T00:39:43.448Z,14.80
2023-03-20T00:42:22.156Z,14.90
2023-03-20T00:44:54.465Z,13.90
2023-03-20T00:47:25.490Z,15.30
2023-03-20T00:49:55.972Z,16.00
2023-03-20T00:52:26.349Z,15.20
2023-03-20T00:54:54.680Z,15.70
2023-03-20T00:57:27.751Z,16.00
2023-03-20T01:00:01.522Z,16.10
2023-03-20T01:02:31.705Z,16.10
2023-03-20T01:05:00.199Z,16.00
2023-03-20T01:07:29.929Z,16.30
2023-03-20T01:09:58.217Z,16.40
2023-03-20T01:12:26.664Z,16.50
2023-03-20T01:14:58.570Z,16.60
2023-03-20T01:17:29.387Z,16.30
2023-03-20T01:19:57.740Z,16.00
2023-03-20T01:22:26.231Z,16.30
2023-03-20T01:24:55.889Z,16.40
2023-03-20T01:27:24.246Z,16.40
2023-03-20T01:29:52.524Z,16.50
2023-03-20T01:32:21.457Z,15.70
2023-03-20T01:34:49.873Z,16.20
2023-03-20T01:37:27.144Z,16.30
2023-03-20T01:39:58.359Z,15.90
2023-03-20T01:42:26.994Z,15.90
2023-03-20T01:44:55.333Z,15.90
2023-03-20T01:47:26.125Z,16.30
2023-03-20T01:50:23.386Z,15.50
2023-03-20T01:52:56.718Z,15.90
2023-03-20T01:55:27.673Z,16.20
2023-03-20T01:58:00.308Z,16.10
2023-03-20T02:00:28.751Z,16.10
2023-03-20T02:02:57.774Z,16.10
2023-03-20T02:05:26.415Z,15.50
2023-03-20T02:08:09.729Z,15.80
2023-03-20T02:10:40.788Z,16.00
2023-03-20T02:13:11.023Z,16.10
2023-03-20T02:15:57.839Z,15.10
2023-03-20T02:18:26.961Z,14.60
2023-03-20T02:21:47.825Z,15.40
2023-03-20T02:24:57.091Z,15.80
2023-03-20T02:27:35.938Z,15.30
2023-03-20T02:30:53.389Z,15.60
2023-03-20T02:34:19.380Z,15.50
2023-03-20T02:37:24.004Z,15.70
2023-03-20T02:40:10.342Z,13.60
2023-03-20T02:42:48.032Z,14.30
2023-03-20T02:45:23.817Z,14.90
2023-03-20T02:48:01.671Z,14.20
2023-03-20T02:50:37.149Z,14.60
2023-03-20T02:53:19.002Z,15.10
2023-03-20T02:55:56.499Z,15.80
2023-03-20T02:58:29.643Z,15.90
2023-03-20T03:01:04.786Z,16.10
2023-03-20T03:03:39.379Z,16.00
2023-03-20T03:06:13.570Z,16.20
2023-03-20T03:08:49.296Z,15.60
2023-03-20T03:11:18.132Z,15.90
2023-03-20T03:13:51.896Z,15.40
2023-03-20T03:16:27.271Z,15.80
2023-03-20T03:19:07.049Z,15.40
2023-03-20T03:21:38.494Z,15.80
2023-03-20T03:24:37.198Z,15.90
2023-03-20T03:27:18.616Z,16.00
2023-03-20T03:29:54.320Z,15.90
2023-03-20T03:32:34.286Z,16.10
2023-03-20T03:35:06.516Z,16.10
2023-03-20T03:37:49.674Z,16.10
2023-03-20T03:40:29.236Z,15.90
2023-03-20T03:43:02.974Z,15.70
2023-03-20T03:45:36.819Z,14.90
2023-03-20T03:48:12.681Z,15.50
2023-03-20T03:50:48.845Z,15.80
2023-03-20T03:53:23.796Z,16.00
2023-03-20T03:55:59.392Z,15.90
2023-03-20T03:58:32.268Z,15.10
2023-03-20T04:01:03.491Z,15.60
2023-03-20T04:03:39.521Z,15.30
2023-03-20T04:06:12.514Z,15.70
2023-03-20T04:08:42.262Z,15.30
2023-03-20T04:11:17.459Z,15.70
2023-03-20T04:13:47.243Z,15.80
2023-03-20T04:16:17.307Z,15.90
2023-03-20T04:18:47.232Z,15.90
2023-03-20T04:21:16.892Z,14.60
2023-03-20T04:23:45.271Z,14.90
2023-03-20T04:28:44.672Z,15.20
2023-03-20T04:31:14.261Z,14.50
2023-03-20T04:33:42.976Z,15.20
2023-03-20T04:36:11.812Z,15.60
2023-03-20T04:38:40.492Z,15.80
2023-03-20T04:41:09.197Z,15.90
2023-03-20T04:43:39.376Z,15.90
2023-03-20T04:46:08.315Z,15.80
2023-03-20T04:48:36.676Z,15.20
2023-03-20T04:51:05.347Z,15.50
2023-03-20T04:53:33.658Z,15.60
2023-03-20T04:56:02.293Z,15.60
2023-03-20T04:58:30.673Z,15.50
2023-03-20T05:01:00.455Z,15.30
2023-03-20T05:03:28.763Z,13.60
2023-03-20T05:05:57.122Z,13.90
2023-03-20T05:08:26.044Z,13.60
2023-03-20T05:10:54.526Z,13.30
2023-03-20T05:13:22.804Z,13.70
2023-03-20T05:15:51.300Z,13.40
2023-03-20T05:18:20.971Z,13.50
2023-03-20T05:20:50.688Z,14.60
2023-03-20T05:23:19.004Z,14.80
2023-03-20T05:25:47.336Z,14.60
2023-03-20T05:28:15.616Z,14.20
2023-03-20T05:30:43.948Z,15.00
2023-03-20T05:33:12.283Z,14.20
2023-03-20T05:35:42.060Z,14.70
2023-03-20T05:38:10.391Z,13.30
2023-03-20T05:40:38.742Z,14.10
2023-03-20T05:43:07.038Z,13.40
2023-03-20T05:45:35.682Z,13.60
2023-03-20T05:48:04.205Z,13.40
2023-03-20T05:50:32.551Z,14.40
2023-03-20T05:53:02.327Z,14.00
2023-03-20T05:55:30.659Z,14.30
2023-03-20T05:57:58.985Z,14.40
2023-03-20T06:00:27.567Z,14.70
2023-03-20T06:02:56.836Z,14.90
2023-03-20T06:05:25.191Z,14.80
2023-03-20T06:07:53.528Z,14.10
2023-03-20T06:10:23.253Z,14.10
2023-03-20T06:12:51.649Z,14.60
2023-03-20T06:15:19.997Z,13.70
2023-03-20T06:17:48.373Z,13.80
2023-03-20T06:20:17.034Z,14.60
2023-03-20T06:22:46.305Z,14.30
2023-03-20T06:25:15.020Z,14.20
2023-03-20T06:27:44.953Z,14.10
2023-03-20T06:30:14.785Z,14.50
2023-03-20T06:32:43.357Z,14.20
2023-03-20T06:35:13.107Z,14.50
2023-03-20T06:37:42.038Z,14.30
2023-03-20T06:40:12.184Z,14.80
2023-03-20T06:42:40.479Z,14.80
2023-03-20T06:45:12.415Z,15.20
2023-03-20T06:47:40.830Z,15.30
2023-03-20T06:50:10.868Z,15.20
2023-03-20T06:52:39.855Z,14.90
2023-03-20T06:55:09.855Z,15.20
2023-03-20T06:57:38.316Z,14.80
2023-03-20T07:00:10.454Z,15.00
2023-03-20T07:02:38.814Z,14.60
2023-03-20T07:05:08.560Z,13.90
2023-03-20T07:07:37.135Z,13.90
2023-03-20T07:10:07.284Z,12.70
2023-03-20T07:12:35.556Z,13.80
2023-03-20T07:15:04.238Z,12.90
